createdAt,value
2019-05-07T00:01:53.520Z,30.87
2019-05-07T00:04:19.900Z,29.67
2019-05-07T00:06:48.309Z,30.07
2019-05-07T00:09:16.709Z,33.20
2019-05-07T00:11:45.116Z,31.17
2019-05-07T00:14:13.791Z,32.10
2019-05-07T00:16:42.603Z,31.63
2019-05-07T00:19:12.914Z,33.87
2019-05-07T00:21:42.268Z,31.93
2019-05-07T00:24:13.237Z,29.70
2019-05-07T00:26:42.979Z,30.77
2019-05-07T00:29:12.926Z,29.37
2019-05-07T00:31:42.213Z,30.83
2019-05-07T00:34:12.591Z,31.93
2019-05-07T00:36:42.703Z,30.47
2019-05-07T00:39:18.215Z,31.63
2019-05-07T00:41:57.828Z,33.93
2019-05-07T00:44:26.304Z,33.27
2019-05-07T00:46:54.930Z,32.60
2019-05-07T00:49:25.435Z,30.23
2019-05-07T00:51:53.890Z,31.40
2019-05-07T00:54:23.111Z,30.63
2019-05-07T00:56:52.200Z,30.23
2019-05-07T00:59:22.609Z,37.10
2019-05-07T01:01:52.837Z,33.43
2019-05-07T01:04:22.951Z,34.80
2019-05-07T01:06:53.227Z,33.10
2019-05-07T01:09:22.912Z,31.10
2019-05-07T01:11:52.402Z,33.27
2019-05-07T01:14:22.833Z,33.27
2019-05-07T01:16:52.911Z,34.77
2019-05-07T01:19:22.026Z,34.70
2019-05-07T01:21:52.465Z,36.23
2019-05-07T01:24:23.088Z,36.33
2019-05-07T01:26:52.948Z,34.50
2019-05-07T01:29:22.559Z,33.60
2019-05-07T01:31:52.845Z,34.97
2019-05-07T01:34:34.479Z,33.57
2019-05-07T01:37:03.201Z,35.03
2019-05-07T01:39:32.612Z,38.87
2019-05-07T01:42:02.123Z,33.40
2019-05-07T01:44:32.513Z,37.40
2019-05-07T01:47:02.551Z,36.63
2019-05-07T01:49:33.085Z,33.60
2019-05-07T01:52:02.455Z,35.00
2019-05-07T01:54:33.223Z,34.73
2019-05-07T01:57:02.824Z,34.50
2019-05-07T01:59:32.138Z,36.27
2019-05-07T02:02:08.129Z,33.37
2019-05-07T02:04:38.177Z,33.87
2019-05-07T02:07:17.870Z,32.70
2019-05-07T02:09:51.907Z,35.50
2019-05-07T02:12:24.870Z,33.80
2019-05-07T02:14:53.555Z,36.83
2019-05-07T02:17:22.810Z,35.47
2019-05-07T02:19:52.748Z,35.10
2019-05-07T02:22:22.667Z,32.53
2019-05-07T02:24:52.391Z,35.97
2019-05-07T02:27:22.138Z,39.40
2019-05-07T02:29:52.926Z,35.10
2019-05-07T02:32:23.688Z,37.27
2019-05-07T02:34:54.412Z,36.30
2019-05-07T02:37:27.383Z,34.07
2019-05-07T02:40:14.204Z,34.70
2019-05-07T02:42:44.292Z,36.50
2019-05-07T02:45:17.233Z,33.60
2019-05-07T02:47:45.648Z,33.50
2019-05-07T02:50:22.747Z,35.87
2019-05-07T02:52:56.295Z,35.83
2019-05-07T02:55:35.499Z,35.30
2019-05-07T02:58:04.241Z,33.80
2019-05-07T03:00:33.520Z,33.37
2019-05-07T03:03:04.067Z,32.90
2019-05-07T03:05:34.956Z,31.27
2019-05-07T03:08:03.652Z,33.33
2019-05-07T03:10:34.068Z,31.77
2019-05-07T03:13:03.426Z,32.33
2019-05-07T03:15:33.424Z,36.03
2019-05-07T03:18:03.449Z,36.57
2019-05-07T03:20:34.819Z,36.33
2019-05-07T03:23:04.244Z,36.33
2019-05-07T03:25:49.708Z,34.47
2019-05-07T03:28:19.201Z,35.80
2019-05-07T03:30:56.697Z,35.60
2019-05-07T03:33:27.286Z,34.33
2019-05-07T03:36:06.248Z,33.03
2019-05-07T03:38:33.302Z,34.10
2019-05-07T03:41:03.423Z,33.03
2019-05-07T03:43:32.500Z,37.10
2019-05-07T03:46:05.568Z,33.60
2019-05-07T03:48:35.857Z,35.87
2019-05-07T03:51:04.236Z,39.73
2019-05-07T03:53:33.938Z,37.40
2019-05-07T03:56:04.126Z,38.00
2019-05-07T03:58:33.947Z,35.43
2019-05-07T04:01:04.390Z,36.93
2019-05-07T04:03:34.129Z,38.00
2019-05-07T04:06:04.119Z,36.40
2019-05-07T04:08:33.360Z,36.07
2019-05-07T04:11:03.581Z,38.93
2019-05-07T04:13:33.563Z,38.83
2019-05-07T04:16:03.965Z,39.43
2019-05-07T04:18:33.308Z,38.80
2019-05-07T04:21:03.717Z,35.17
2019-05-07T04:23:34.108Z,39.37
2019-05-07T04:26:04.658Z,36.40
2019-05-07T04:28:37.565Z,34.90
2019-05-07T04:31:06.012Z,38.10
2019-05-07T04:33:38.781Z,38.37
2019-05-07T04:36:09.118Z,38.93
2019-05-07T04:38:37.512Z,39.77
2019-05-07T04:41:05.914Z,40.23
2019-05-07T04:43:34.305Z,38.47
2019-05-07T04:46:03.398Z,38.33
2019-05-07T04:48:34.132Z,39.53
2019-05-07T04:51:03.767Z,43.67
2019-05-07T04:53:32.781Z,41.57
2019-05-07T04:56:03.327Z,43.03
2019-05-07T04:58:33.919Z,41.90
2019-05-07T05:01:03.232Z,46.83
2019-05-07T05:03:34.632Z,44.73
2019-05-07T05:06:02.657Z,48.13
2019-05-07T05:08:32.520Z,40.00
2019-05-07T05:11:03.328Z,43.70
2019-05-07T05:13:33.044Z,42.60
2019-05-07T05:16:03.708Z,39.33
2019-05-07T05:18:32.951Z,43.83
2019-05-07T05:21:03.117Z,38.00
2019-05-07T05:23:41.765Z,42.17
2019-05-07T05:26:09.523Z,41.30
2019-05-07T05:28:38.018Z,42.57
2019-05-07T05:31:07.820Z,42.10
2019-05-07T05:33:36.217Z,42.47
2019-05-07T05:36:04.920Z,40.33
2019-05-07T05:38:33.582Z,40.23
2019-05-07T05:41:02.734Z,40.03
2019-05-07T05:43:35.490Z,42.10
2019-05-07T05:46:05.653Z,40.93
2019-05-07T05:48:34.294Z,39.60
2019-05-07T05:51:04.402Z,40.30
2019-05-07T05:53:52.281Z,36.33
2019-05-07T05:56:24.449Z,39.03
2019-05-07T05:58:58.402Z,36.40
2019-05-07T06:01:47.216Z,36.00
2019-05-07T06:04:32.958Z,37.57
2019-05-07T06:07:11.034Z,37.20
2019-05-07T06:09:46.691Z,39.83
2019-05-07T06:12:33.012Z,37.33
2019-05-07T06:15:02.999Z,38.93
2019-05-07T06:17:33.328Z,37.90
2019-05-07T06:20:18.369Z,41.80
2019-05-07T06:23:05.295Z,40.53
2019-05-07T06:25:33.701Z,38.07
2019-05-07T06:28:02.104Z,41.70
2019-05-07T06:30:30.513Z,44.20
2019-05-07T06:32:58.901Z,42.60
2019-05-07T06:35:27.301Z,41.67
2019-05-07T06:37:55.701Z,41.93
2019-05-07T06:40:29.473Z,45.13
2019-05-07T06:43:00.339Z,39.30
2019-05-07T06:45:35.389Z,38.53
2019-05-07T06:48:03.617Z,40.50
2019-05-07T06:50:32.731Z,41.70
2019-05-07T06:53:02.707Z,37.33
2019-05-07T06:55:32.422Z,41.03
2019-05-07T06:58:02.602Z,39.43
2019-05-07T07:00:33.399Z,36.90
2019-05-07T07:03:15.192Z,36.17
2019-05-07T07:05:45.208Z,32.17
2019-05-07T07:08:15.590Z,32.47
2019-05-07T07:11:02.725Z,32.50
2019-05-07T07:13:32.258Z,41.53
2019-05-07T07:16:01.950Z,31.23
2019-05-07T07:18:32.362Z,35.40
2019-05-07T07:21:02.193Z,36.63
2019-05-07T07:23:32.393Z,31.93
2019-05-07T07:26:03.246Z,31.73
2019-05-07T07:28:32.701Z,35.70
2019-05-07T07:31:05.723Z,32.27
2019-05-07T07:33:35.765Z,37.03
2019-05-07T07:36:04.440Z,32.50
2019-05-07T07:38:33.438Z,33.73
2019-05-07T07:41:05.543Z,33.43
2019-05-07T07:43:33.885Z,35.80
2019-05-07T07:46:02.685Z,31.83
2019-05-07T07:48:32.132Z,30.13
2019-05-07T07:51:03.025Z,27.63
2019-05-07T07:53:35.210Z,26.47
2019-05-07T07:56:19.955Z,27.80
2019-05-07T07:59:06.436Z,27.00
2019-05-07T08:01:36.775Z,27.23
2019-05-07T08:04:05.232Z,25.20
2019-05-07T08:06:33.978Z,24.57
2019-05-07T08:09:02.447Z,24.50
2019-05-07T08:11:31.949Z,22.43
2019-05-07T08:14:02.308Z,28.27
2019-05-07T08:16:32.716Z,22.83
2019-05-07T08:19:02.963Z,23.73
2019-05-07T08:21:33.161Z,22.33
2019-05-07T08:24:02.900Z,23.27
2019-05-07T08:26:32.318Z,24.07
2019-05-07T08:29:02.931Z,21.53
2019-05-07T08:31:45.045Z,23.07
2019-05-07T08:34:15.059Z,24.20
2019-05-07T08:36:43.475Z,21.93
2019-05-07T08:39:13.031Z,27.10
2019-05-07T08:41:44.228Z,26.33
2019-05-07T08:44:17.357Z,23.47
2019-05-07T08:46:52.090Z,29.57
2019-05-07T08:49:33.429Z,24.07
2019-05-07T08:52:03.056Z,22.40
2019-05-07T08:54:32.538Z,23.57
2019-05-07T08:57:02.055Z,21.77
2019-05-07T08:59:32.100Z,20.40
2019-05-07T09:02:02.999Z,26.80
2019-05-07T09:04:32.763Z,23.57
2019-05-07T09:07:02.730Z,24.03
2019-05-07T09:09:32.453Z,27.83
2019-05-07T09:12:03.066Z,24.73
2019-05-07T09:14:32.203Z,25.10
2019-05-07T09:17:02.692Z,25.47
2019-05-07T09:19:32.293Z,24.10
2019-05-07T09:22:02.114Z,24.13
2019-05-07T09:24:32.954Z,25.10
2019-05-07T09:27:12.221Z,20.27
2019-05-07T09:29:52.027Z,24.10
2019-05-07T09:32:25.122Z,26.40
2019-05-07T09:34:55.435Z,20.33
2019-05-07T09:37:28.860Z,20.77
2019-05-07T09:40:06.917Z,24.40
2019-05-07T09:42:37.289Z,21.90
2019-05-07T09:45:08.506Z,24.93
2019-05-07T09:47:37.216Z,23.63
2019-05-07T09:50:08.913Z,20.43
2019-05-07T09:52:37.394Z,24.63
2019-05-07T09:55:16.455Z,21.33
2019-05-07T09:57:37.913Z,24.53
2019-05-07T10:00:09.775Z,23.17
2019-05-07T10:02:42.312Z,22.03
2019-05-07T10:05:10.933Z,22.17
2019-05-07T10:07:39.708Z,24.10
2019-05-07T10:10:08.709Z,25.10
2019-05-07T10:12:57.278Z,23.73
2019-05-07T10:15:26.041Z,22.40
2019-05-07T10:17:59.353Z,22.83
2019-05-07T10:20:33.250Z,22.73
2019-05-07T10:23:02.388Z,21.93
2019-05-07T10:25:40.191Z,20.90
2019-05-07T10:28:09.147Z,21.33
2019-05-07T10:30:37.626Z,21.43
2019-05-07T10:33:06.021Z,22.00
2019-05-07T10:35:34.587Z,22.27
2019-05-07T10:38:03.272Z,23.10
2019-05-07T10:40:32.768Z,23.80
2019-05-07T10:43:01.786Z,25.10
2019-05-07T10:45:35.193Z,25.53
2019-05-07T10:48:07.967Z,25.20
2019-05-07T10:50:39.381Z,22.53
2019-05-07T10:53:09.705Z,26.37
2019-05-07T10:55:45.479Z,26.00
2019-05-07T10:58:12.839Z,24.13
2019-05-07T11:00:42.076Z,23.33
2019-05-07T11:03:12.587Z,23.43
2019-05-07T11:05:41.861Z,22.30
2019-05-07T11:08:11.109Z,24.70
2019-05-07T11:10:41.765Z,22.00
2019-05-07T11:13:12.646Z,23.27
2019-05-07T11:15:42.933Z,27.13
2019-05-07T11:18:16.302Z,34.33
2019-05-07T11:20:49.308Z,28.00
2019-05-07T11:23:15.112Z,26.60
2019-05-07T11:25:43.508Z,29.03
2019-05-07T11:28:12.532Z,26.23
2019-05-07T11:30:42.526Z,29.40
2019-05-07T11:33:12.769Z,25.90
2019-05-07T11:35:42.282Z,27.90
2019-05-07T11:38:20.621Z,26.50
2019-05-07T11:40:42.681Z,24.37
2019-05-07T11:43:19.162Z,29.13
2019-05-07T11:45:49.210Z,24.00
2019-05-07T11:48:18.560Z,32.30
2019-05-07T11:51:03.279Z,23.33
2019-05-07T11:53:29.065Z,20.60
2019-05-07T11:55:59.319Z,22.03
2019-05-07T11:58:27.804Z,21.97
2019-05-07T12:01:05.170Z,20.77
2019-05-07T12:03:33.607Z,24.53
2019-05-07T12:06:02.275Z,22.73
2019-05-07T12:08:38.412Z,20.83
2019-05-07T12:11:02.332Z,24.00
2019-05-07T12:13:32.271Z,21.83
2019-05-07T12:16:02.948Z,21.40
2019-05-07T12:18:31.907Z,21.77
2019-05-07T12:21:03.884Z,22.53
2019-05-07T12:23:33.060Z,22.10
2019-05-07T12:26:02.283Z,24.00
2019-05-07T12:28:32.834Z,22.97
2019-05-07T12:31:08.977Z,19.03
2019-05-07T12:33:39.017Z,20.90
2019-05-07T12:36:09.116Z,19.30
2019-05-07T12:38:41.608Z,20.50
2019-05-07T12:41:27.739Z,25.13
2019-05-07T12:43:56.140Z,23.23
2019-05-07T12:46:24.581Z,21.37
2019-05-07T12:48:53.064Z,22.77
2019-05-07T12:51:33.492Z,21.90
2019-05-07T12:53:55.448Z,25.50
2019-05-07T12:56:23.854Z,24.90
2019-05-07T12:58:52.524Z,25.90
2019-05-07T13:01:42.201Z,31.40
2019-05-07T13:04:15.297Z,23.73
2019-05-07T13:06:45.359Z,25.73
2019-05-07T13:09:13.810Z,25.27
2019-05-07T13:11:42.570Z,24.77
2019-05-07T13:14:12.589Z,22.90
2019-05-07T13:16:41.392Z,25.33
2019-05-07T13:19:09.791Z,21.43
2019-05-07T13:21:49.136Z,21.23
2019-05-07T13:24:08.533Z,23.07
2019-05-07T13:26:36.993Z,23.70
2019-05-07T13:29:05.516Z,20.20
2019-05-07T13:31:35.659Z,20.50
2019-05-07T13:34:04.340Z,18.93
2019-05-07T13:36:35.153Z,17.97
2019-05-07T13:39:12.582Z,17.97
2019-05-07T13:41:42.611Z,19.70
2019-05-07T13:44:13.889Z,20.90
2019-05-07T13:46:45.022Z,20.23
2019-05-07T13:49:13.221Z,19.10
2019-05-07T13:51:42.081Z,21.30
2019-05-07T13:54:12.877Z,19.33
2019-05-07T13:56:41.929Z,19.27
2019-05-07T13:59:13.171Z,19.83
2019-05-07T14:01:43.898Z,19.50
2019-05-07T14:04:13.008Z,21.53
2019-05-07T14:06:43.013Z,20.37
2019-05-07T14:09:15.133Z,19.63
2019-05-07T14:11:43.653Z,21.77
2019-05-07T14:14:12.402Z,20.27
2019-05-07T14:16:44.723Z,18.93
2019-05-07T14:19:12.992Z,16.90
2019-05-07T14:21:42.281Z,18.40
2019-05-07T14:24:16.659Z,18.77
2019-05-07T14:26:44.989Z,17.20
2019-05-07T14:29:16.499Z,17.80
2019-05-07T14:31:48.250Z,16.93
2019-05-07T14:34:35.009Z,18.00
2019-05-07T14:37:05.449Z,20.33
2019-05-07T14:39:33.861Z,18.67
2019-05-07T14:42:04.344Z,19.93
2019-05-07T14:44:49.997Z,19.13
2019-05-07T14:47:19.572Z,19.03
2019-05-07T14:49:49.057Z,18.27
2019-05-07T14:52:28.949Z,18.00
2019-05-07T14:54:51.974Z,17.43
2019-05-07T14:57:22.097Z,19.90
2019-05-07T14:59:52.385Z,18.00
2019-05-07T15:02:21.003Z,16.63
2019-05-07T15:04:52.083Z,16.80
2019-05-07T15:07:22.452Z,20.73
2019-05-07T15:09:51.910Z,17.67
2019-05-07T15:12:20.400Z,16.90
2019-05-07T15:14:48.980Z,18.20
2019-05-07T15:17:19.042Z,17.83
2019-05-07T15:19:47.773Z,18.27
2019-05-07T15:22:23.817Z,17.17
2019-05-07T15:24:52.652Z,15.50
2019-05-07T15:27:22.769Z,17.03
2019-05-07T15:29:52.628Z,15.83
2019-05-07T15:32:21.949Z,17.87
2019-05-07T15:34:52.563Z,16.70
2019-05-07T15:37:20.805Z,18.10
2019-05-07T15:39:49.197Z,17.23
2019-05-07T15:42:17.742Z,16.10
2019-05-07T15:44:46.287Z,15.53
2019-05-07T15:47:19.118Z,17.50
2019-05-07T15:49:47.619Z,15.13
2019-05-07T15:52:22.157Z,16.33
2019-05-07T15:54:52.222Z,17.50
2019-05-07T15:57:22.794Z,15.83
2019-05-07T15:59:52.859Z,18.67
2019-05-07T16:02:25.737Z,18.40
2019-05-07T16:04:54.170Z,15.30
2019-05-07T16:07:22.683Z,15.60
2019-05-07T16:09:52.592Z,15.20
2019-05-07T16:12:22.668Z,18.20
2019-05-07T16:14:52.473Z,14.30
2019-05-07T16:17:24.510Z,13.10
2019-05-07T16:19:55.028Z,13.30
2019-05-07T16:22:24.868Z,13.37
2019-05-07T16:24:53.309Z,18.43
2019-05-07T16:27:22.490Z,15.63
2019-05-07T16:29:52.700Z,14.57
2019-05-07T16:32:24.803Z,14.13
2019-05-07T16:34:53.218Z,13.83
2019-05-07T16:37:21.731Z,13.43
2019-05-07T16:39:50.213Z,13.00
2019-05-07T16:42:18.589Z,17.47
2019-05-07T16:44:47.340Z,14.93
2019-05-07T16:47:16.555Z,13.67
2019-05-07T16:49:44.949Z,15.23
2019-05-07T16:52:13.344Z,13.40
2019-05-07T16:54:44.896Z,16.73
2019-05-07T16:57:28.746Z,12.90
2019-05-07T16:59:57.212Z,12.67
2019-05-07T17:02:27.247Z,12.93
2019-05-07T17:05:05.200Z,12.60
2019-05-07T17:07:35.392Z,11.90
2019-05-07T17:10:08.096Z,11.93
2019-05-07T17:12:38.790Z,11.80
2019-05-07T17:15:08.506Z,10.93
2019-05-07T17:17:37.018Z,10.70
2019-05-07T17:20:07.900Z,10.97
2019-05-07T17:22:36.631Z,10.63
2019-05-07T17:25:26.694Z,10.90
2019-05-07T17:27:55.101Z,11.10
2019-05-07T17:30:23.494Z,10.73
2019-05-07T17:32:52.564Z,10.70
2019-05-07T17:35:22.405Z,9.30
2019-05-07T17:37:51.853Z,10.20
2019-05-07T17:40:22.169Z,9.43
2019-05-07T17:42:52.471Z,9.20
2019-05-07T17:45:22.424Z,8.23
2019-05-07T17:47:52.331Z,8.37
2019-05-07T17:50:25.706Z,9.07
2019-05-07T17:52:54.087Z,8.80
2019-05-07T17:55:22.478Z,11.47
2019-05-07T17:57:52.367Z,8.10
2019-05-07T18:00:22.156Z,11.30
2019-05-07T18:02:55.172Z,8.00
2019-05-07T18:05:23.561Z,8.70
2019-05-07T18:07:52.770Z,9.70
2019-05-07T18:10:21.760Z,9.80
2019-05-07T18:12:54.570Z,8.40
2019-05-07T18:15:23.038Z,8.63
2019-05-07T18:17:53.066Z,9.93
2019-05-07T18:20:22.226Z,9.67
2019-05-07T18:22:52.124Z,8.83
2019-05-07T18:25:21.739Z,9.57
2019-05-07T18:27:52.552Z,10.00
2019-05-07T18:30:22.171Z,9.73
2019-05-07T18:32:55.344Z,10.40
2019-05-07T18:35:23.722Z,10.00
2019-05-07T18:37:52.726Z,9.37
2019-05-07T18:40:22.583Z,10.00
2019-05-07T18:42:52.435Z,11.27
2019-05-07T18:45:21.772Z,9.47
2019-05-07T18:47:51.707Z,10.17
2019-05-07T18:50:22.341Z,9.90
2019-05-07T18:52:52.226Z,10.80
2019-05-07T18:55:22.698Z,10.67
2019-05-07T18:57:51.814Z,9.60
2019-05-07T19:00:25.331Z,9.10
2019-05-07T19:02:53.779Z,9.17
2019-05-07T19:05:22.363Z,9.57
2019-05-07T19:08:03.848Z,9.80
2019-05-07T19:10:22.025Z,9.60
2019-05-07T19:12:52.755Z,12.60
2019-05-07T19:15:22.009Z,10.20
2019-05-07T19:17:50.454Z,10.60
2019-05-07T19:20:18.840Z,10.80
2019-05-07T19:22:47.232Z,10.53
2019-05-07T19:25:15.671Z,10.30
2019-05-07T19:27:44.555Z,10.10
2019-05-07T19:30:13.655Z,10.80
2019-05-07T19:32:42.732Z,11.70
2019-05-07T19:35:13.639Z,11.80
2019-05-07T19:37:42.594Z,12.23
2019-05-07T19:40:12.508Z,11.00
2019-05-07T19:42:42.774Z,11.73
2019-05-07T19:45:12.808Z,12.57
2019-05-07T19:47:44.927Z,11.93
2019-05-07T19:50:13.389Z,12.27
2019-05-07T19:52:42.656Z,11.93
2019-05-07T19:55:14.570Z,11.27
2019-05-07T19:57:52.140Z,11.63
2019-05-07T20:00:24.997Z,10.87
2019-05-07T20:02:57.723Z,10.37
2019-05-07T20:05:32.359Z,13.17
2019-05-07T20:08:04.628Z,10.80
2019-05-07T20:10:33.939Z,11.77
2019-05-07T20:13:03.102Z,12.27
2019-05-07T20:15:32.019Z,11.30
2019-05-07T20:18:03.027Z,11.77
2019-05-07T20:20:33.175Z,11.10
2019-05-07T20:23:03.531Z,11.10
2019-05-07T20:25:33.210Z,16.10
2019-05-07T20:28:02.268Z,10.60
2019-05-07T20:30:32.465Z,12.07
2019-05-07T20:33:02.948Z,12.23
2019-05-07T20:35:32.584Z,11.90
2019-05-07T20:38:02.892Z,11.53
2019-05-07T20:40:32.043Z,16.23
2019-05-07T20:43:01.920Z,13.10
2019-05-07T20:45:32.082Z,12.97
2019-05-07T20:48:02.570Z,12.17
2019-05-07T20:50:33.098Z,11.80
2019-05-07T20:53:02.057Z,12.50
2019-05-07T20:55:35.086Z,12.07
2019-05-07T20:58:03.497Z,12.27
2019-05-07T21:00:32.604Z,11.63
2019-05-07T21:03:19.647Z,11.47
2019-05-07T21:05:52.957Z,11.20
2019-05-07T21:08:22.685Z,12.87
2019-05-07T21:10:53.593Z,10.60
2019-05-07T21:13:28.478Z,11.97
2019-05-07T21:15:53.774Z,11.00
2019-05-07T21:18:23.321Z,10.70
2019-05-07T21:20:52.979Z,11.10
2019-05-07T21:23:23.084Z,11.03
2019-05-07T21:25:52.792Z,11.23
2019-05-07T21:28:21.618Z,10.77
2019-05-07T21:30:52.219Z,11.73
2019-05-07T21:33:22.617Z,13.07
2019-05-07T21:35:52.297Z,11.03
2019-05-07T21:38:22.306Z,10.20
2019-05-07T21:40:50.968Z,11.97
2019-05-07T21:43:21.881Z,11.47
2019-05-07T21:45:49.511Z,12.10
2019-05-07T21:48:18.237Z,11.83
2019-05-07T21:50:46.631Z,12.53
2019-05-07T21:53:16.669Z,13.00
2019-05-07T21:55:58.820Z,12.03
2019-05-07T21:58:24.191Z,12.20
2019-05-07T22:01:02.119Z,12.10
2019-05-07T22:03:32.430Z,11.80
2019-05-07T22:06:02.612Z,11.20
2019-05-07T22:08:32.586Z,11.50
2019-05-07T22:11:02.503Z,12.83
2019-05-07T22:13:32.944Z,11.57
2019-05-07T22:16:02.619Z,11.77
2019-05-07T22:18:31.975Z,12.10
2019-05-07T22:21:02.884Z,11.13
2019-05-07T22:23:32.468Z,12.20
2019-05-07T22:26:18.430Z,11.57
2019-05-07T22:28:32.105Z,12.33
2019-05-07T22:31:02.510Z,11.40
2019-05-07T22:33:32.533Z,11.03
2019-05-07T22:36:01.790Z,12.13
2019-05-07T22:38:32.377Z,12.10
2019-05-07T22:41:02.162Z,10.83
2019-05-07T22:43:31.838Z,11.60
2019-05-07T22:46:00.492Z,12.00
2019-05-07T22:48:29.164Z,11.53
2019-05-07T22:50:57.567Z,12.90
2019-05-07T22:53:25.977Z,11.47
2019-05-07T22:55:54.364Z,11.27
2019-05-07T22:58:41.840Z,12.17
2019-05-07T23:01:14.618Z,11.37
2019-05-07T23:03:45.631Z,12.00
2019-05-07T23:06:14.034Z,12.23
2019-05-07T23:08:42.652Z,11.93
2019-05-07T23:11:12.264Z,12.53
2019-05-07T23:13:42.742Z,12.07
2019-05-07T23:16:12.569Z,11.03
2019-05-07T23:18:42.814Z,11.97
2019-05-07T23:21:11.462Z,13.10
2019-05-07T23:23:42.265Z,11.47
2019-05-07T23:26:14.303Z,11.90
2019-05-07T23:28:41.843Z,13.07
2019-05-07T23:31:12.112Z,11.60
2019-05-07T23:33:40.459Z,12.70
2019-05-07T23:36:08.861Z,11.63
2019-05-07T23:38:37.274Z,12.00
2019-05-07T23:41:07.318Z,11.97
2019-05-07T23:43:35.927Z,11.97
2019-05-07T23:46:04.655Z,11.67
2019-05-07T23:48:33.054Z,11.77
2019-05-07T23:51:02.119Z,12.43
2019-05-07T23:53:30.649Z,11.67
2019-05-07T23:55:59.043Z,12.93
2019-05-07T23:58:27.468Z,11.03
